sensor_id;sensor_type;location;lat;lon;timestamp;pressure;altitude;pressure_sealevel;temperature;humidity
56270;BME280;42176;43.240;27.880;2024-02-28T00:01:08;100764.66;;;6.12;100.00
56270;BME280;42176;43.240;27.880;2024-02-28T00:03:08;100762.09;;;6.24;100.00
56270;BME280;42176;43.240;27.880;2024-02-28T00:05:09;100765.69;;;6.42;100.00
56270;BME280;42176;43.240;27.880;2024-02-28T00:07:10;100753.53;;;6.67;100.00
56270;BME280;42176;43.240;27.880;2024-02-28T00:09:11;100758.72;;;6.47;100.00
56270;BME280;42176;43.240;27.880;2024-02-28T00:11:11;100757.50;;;5.97;100.00
56270;BME280;42176;43.240;27.880;2024-02-28T00:13:12;100758.50;;;6.07;100.00
56270;BME280;42176;43.240;27.880;2024-02-28T00:15:13;100765.59;;;6.23;100.00
56270;BME280;42176;43.240;27.880;2024-02-28T00:17:13;100767.53;;;6.59;100.00
56270;BME280;42176;43.240;27.880;2024-02-28T00:19:14;100745.47;;;6.32;100.00
56270;BME280;42176;43.240;27.880;2024-02-28T00:21:15;100760.16;;;5.99;100.00
56270;BME280;42176;43.240;27.880;2024-02-28T00:23:15;100760.22;;;6.05;100.00
56270;BME280;42176;43.240;27.880;2024-02-28T00:25:16;100762.09;;;6.24;100.00
56270;BME280;42176;43.240;27.880;2024-02-28T00:27:16;100758.69;;;6.38;100.00
56270;BME280;42176;43.240;27.880;2024-02-28T00:29:17;100758.72;;;6.47;100.00
56270;BME280;42176;43.240;27.880;2024-02-28T00:31:18;100764.03;;;6.63;100.00
56270;BME280;42176;43.240;27.880;2024-02-28T00:33:19;100756.22;;;6.77;100.00
56270;BME280;42176;43.240;27.880;2024-02-28T00:35:19;100752.75;;;6.95;100.00
56270;BME280;42176;43.240;27.880;2024-02-28T00:37:20;100753.63;;;6.97;100.00
56270;BME280;42176;43.240;27.880;2024-02-28T00:39:21;100749.25;;;7.13;100.00
56270;BME280;42176;43.240;27.880;2024-02-28T00:41:22;100741.09;;;6.40;100.00
56270;BME280;42176;43.240;27.880;2024-02-28T00:43:23;100744.41;;;6.03;100.00
56270;BME280;42176;43.240;27.880;2024-02-28T00:45:23;100731.94;;;5.77;100.00
56270;BME280;42176;43.240;27.880;2024-02-28T00:47:24;100758.47;;;6.04;100.00
56270;BME280;42176;43.240;27.880;2024-02-28T00:49:24;100758.50;;;6.13;100.00
56270;BME280;42176;43.240;27.880;2024-02-28T00:51:25;100767.38;;;6.28;100.00
56270;BME280;42176;43.240;27.880;2024-02-28T00:53:25;100763.94;;;6.38;100.00
56270;BME280;42176;43.240;27.880;2024-02-28T00:55:26;100769.34;;;6.69;100.00
56270;BME280;42176;43.240;27.880;2024-02-28T00:57:26;100759.72;;;6.82;100.00
56270;BME280;42176;43.240;27.880;2024-02-28T00:59:27;100767.69;;;6.99;100.00
56270;BME280;42176;43.240;27.880;2024-02-28T01:01:28;100773.00;;;7.11;100.00
56270;BME280;42176;43.240;27.880;2024-02-28T01:03:28;100759.84;;;7.22;100.00
56270;BME280;42176;43.240;27.880;2024-02-28T01:05:29;100757.22;;;7.39;100.00
56270;BME280;42176;43.240;27.880;2024-02-28T01:07:30;100753.72;;;7.59;100.00
56270;BME280;42176;43.240;27.880;2024-02-28T01:09:31;100750.06;;;6.79;100.00
56270;BME280;42176;43.240;27.880;2024-02-28T01:11:31;100754.13;;;6.17;100.00
56270;BME280;42176;43.240;27.880;2024-02-28T01:13:32;100754.81;;;5.86;100.00
56270;BME280;42176;43.240;27.880;2024-02-28T01:15:32;100763.59;;;5.88;100.00
56270;BME280;42176;43.240;27.880;2024-02-28T01:17:33;100760.22;;;6.05;100.00
56270;BME280;42176;43.240;27.880;2024-02-28T01:19:34;100768.22;;;6.23;100.00
56270;BME280;42176;43.240;27.880;2024-02-28T01:21:34;100764.03;;;6.60;100.00
56270;BME280;42176;43.240;27.880;2024-02-28T01:23:35;100764.03;;;6.53;100.00
56270;BME280;42176;43.240;27.880;2024-02-28T01:25:35;100763.56;;;5.85;100.00
56270;BME280;42176;43.240;27.880;2024-02-28T01:27:36;100764.44;;;5.84;100.00
56270;BME280;42176;43.240;27.880;2024-02-28T01:29:36;100770.66;;;5.95;100.00
56270;BME280;42176;43.240;27.880;2024-02-28T01:31:37;100774.28;;;6.08;100.00
56270;BME280;42176;43.240;27.880;2024-02-28T01:33:37;100781.56;;;6.51;100.00
56270;BME280;42176;43.240;27.880;2024-02-28T01:35:38;100762.09;;;6.21;100.00
56270;BME280;42176;43.240;27.880;2024-02-28T01:37:39;100758.16;;;5.67;100.00
56270;BME280;42176;43.240;27.880;2024-02-28T01:39:39;100764.25;;;5.62;100.00
56270;BME280;42176;43.240;27.880;2024-02-28T01:41:40;100765.19;;;5.68;100.00
56270;BME280;42176;43.240;27.880;2024-02-28T01:43:40;100776.03;;;6.08;100.00
56270;BME280;42176;43.240;27.880;2024-02-28T01:45:42;100765.25;;;5.80;100.00
56270;BME280;42176;43.240;27.880;2024-02-28T01:47:43;100767.59;;;5.46;100.00
56270;BME280;42176;43.240;27.880;2024-02-28T01:49:45;100770.31;;;5.52;100.00
56270;BME280;42176;43.240;27.880;2024-02-28T01:51:47;100787.91;;;5.62;100.00
56270;BME280;42176;43.240;27.880;2024-02-28T01:53:48;100782.75;;;5.72;100.00
56270;BME280;42176;43.240;27.880;2024-02-28T01:55:50;100786.53;;;6.02;100.00
56270;BME280;42176;43.240;27.880;2024-02-28T01:57:52;100772.94;;;5.51;100.00
56270;BME280;42176;43.240;27.880;2024-02-28T01:59:53;100774.41;;;5.24;100.00
56270;BME280;42176;43.240;27.880;2024-02-28T02:01:55;100777.16;;;5.34;100.00
56270;BME280;42176;43.240;27.880;2024-02-28T02:03:55;100778.06;;;5.37;100.00
56270;BME280;42176;43.240;27.880;2024-02-28T02:05:56;100781.84;;;5.71;100.00
56270;BME280;42176;43.240;27.880;2024-02-28T02:07:57;100786.22;;;5.68;100.00
56270;BME280;42176;43.240;27.880;2024-02-28T02:09:58;100775.94;;;5.00;100.00
56270;BME280;42176;43.240;27.880;2024-02-28T02:11:59;100770.41;;;4.77;100.00
56270;BME280;42176;43.240;27.880;2024-02-28T02:13:59;100781.00;;;4.86;100.00
56270;BME280;42176;43.240;27.880;2024-02-28T02:16:00;100786.41;;;4.98;100.00
56270;BME280;42176;43.240;27.880;2024-02-28T02:18:01;100784.84;;;5.16;100.00
56270;BME280;42176;43.240;27.880;2024-02-28T02:20:01;100792.13;;;5.42;100.00
56270;BME280;42176;43.240;27.880;2024-02-28T02:22:04;100796.72;;;4.80;100.00
56270;BME280;42176;43.240;27.880;2024-02-28T02:24:05;100791.06;;;4.50;100.00
56270;BME280;42176;43.240;27.880;2024-02-28T02:26:07;100788.47;;;4.52;100.00
56270;BME280;42176;43.240;27.880;2024-02-28T02:28:07;100794.75;;;4.65;100.00
56270;BME280;42176;43.240;27.880;2024-02-28T02:30:08;100798.75;;;5.07;100.00
56270;BME280;42176;43.240;27.880;2024-02-28T02:32:09;100801.34;;;5.02;100.00
56270;BME280;42176;43.240;27.880;2024-02-28T02:34:09;100797.22;;;4.51;100.00
56270;BME280;42176;43.240;27.880;2024-02-28T02:36:10;100797.78;;;4.30;100.00
56270;BME280;42176;43.240;27.880;2024-02-28T02:38:10;100795.25;;;4.34;100.00
56270;BME280;42176;43.240;27.880;2024-02-28T02:40:12;100816.47;;;4.53;100.00
56270;BME280;42176;43.240;27.880;2024-02-28T02:42:12;100819.00;;;5.13;100.00
56270;BME280;42176;43.240;27.880;2024-02-28T02:44:15;100816.63;;;4.62;100.00
56270;BME280;42176;43.240;27.880;2024-02-28T02:46:15;100815.78;;;4.05;100.00
56270;BME280;42176;43.240;27.880;2024-02-28T02:48:16;100814.19;;;4.15;100.00
56270;BME280;42176;43.240;27.880;2024-02-28T02:50:17;100809.13;;;4.27;100.00
56270;BME280;42176;43.240;27.880;2024-02-28T02:52:17;100815.50;;;4.43;100.00
56270;BME280;42176;43.240;27.880;2024-02-28T02:54:18;100835.53;;;5.06;100.00
56270;BME280;42176;43.240;27.880;2024-02-28T02:56:18;100822.59;;;4.52;100.00
56270;BME280;42176;43.240;27.880;2024-02-28T02:58:19;100818.38;;;4.02;100.00
56270;BME280;42176;43.240;27.880;2024-02-28T03:00:19;100812.81;;;3.83;100.00
56270;BME280;42176;43.240;27.880;2024-02-28T03:02:20;100814.09;;;4.08;100.00
56270;BME280;42176;43.240;27.880;2024-02-28T03:04:20;100816.31;;;4.40;100.00
56270;BME280;42176;43.240;27.880;2024-02-28T03:06:21;100832.34;;;4.59;100.00
56270;BME280;42176;43.240;27.880;2024-02-28T03:08:24;100831.47;;;4.00;100.00
56270;BME280;42176;43.240;27.880;2024-02-28T03:10:24;100810.72;;;3.60;100.00
56270;BME280;42176;43.240;27.880;2024-02-28T03:12:25;100833.97;;;3.94;100.00
56270;BME280;42176;43.240;27.880;2024-02-28T03:14:26;100833.38;;;4.10;100.00
56270;BME280;42176;43.240;27.880;2024-02-28T03:16:27;100844.22;;;4.32;100.00
56270;BME280;42176;43.240;27.880;2024-02-28T03:18:29;100847.06;;;4.48;100.00
56270;BME280;42176;43.240;27.880;2024-02-28T03:20:29;100851.69;;;4.64;100.00
56270;BME280;42176;43.240;27.880;2024-02-28T03:22:30;100858.84;;;4.78;100.00
56270;BME280;42176;43.240;27.880;2024-02-28T03:24:30;100844.91;;;4.85;100.00
56270;BME280;42176;43.240;27.880;2024-02-28T03:26:31;100853.84;;;4.96;100.00
56270;BME280;42176;43.240;27.880;2024-02-28T03:28:32;100848.69;;;5.06;100.00
56270;BME280;42176;43.240;27.880;2024-02-28T03:30:32;100847.06;;;5.17;100.00
56270;BME280;42176;43.240;27.880;2024-02-28T03:32:33;100843.66;;;5.24;100.00
56270;BME280;42176;43.240;27.880;2024-02-28T03:34:33;100829.56;;;5.19;100.00
56270;BME280;42176;43.240;27.880;2024-02-28T03:36:35;100824.13;;;4.34;100.00
56270;BME280;42176;43.240;27.880;2024-02-28T03:38:35;100825.72;;;3.69;100.00
56270;BME280;42176;43.240;27.880;2024-02-28T03:40:36;100813.97;;;3.01;100.00
56270;BME280;42176;43.240;27.880;2024-02-28T03:42:37;100818.78;;;3.24;100.00
56270;BME280;42176;43.240;27.880;2024-02-28T03:44:37;100824.53;;;3.52;100.00
56270;BME280;42176;43.240;27.880;2024-02-28T03:46:38;100837.16;;;3.74;100.00
56270;BME280;42176;43.240;27.880;2024-02-28T03:48:39;100848.63;;;4.36;100.00
56270;BME280;42176;43.240;27.880;2024-02-28T03:50:39;100843.31;;;3.76;100.00
56270;BME280;42176;43.240;27.880;2024-02-28T03:52:40;100851.88;;;3.66;100.00
56270;BME280;42176;43.240;27.880;2024-02-28T03:54:42;100855.22;;;3.59;100.00
56270;BME280;42176;43.240;27.880;2024-02-28T03:56:43;100862.56;;;3.78;100.00
56270;BME280;42176;43.240;27.880;2024-02-28T03:58:44;100865.38;;;3.89;100.00
56270;BME280;42176;43.240;27.880;2024-02-28T04:00:44;100875.28;;;4.04;100.00
56270;BME280;42176;43.240;27.880;2024-02-28T04:02:46;100880.78;;;4.20;100.00
56270;BME280;42176;43.240;27.880;2024-02-28T04:04:46;100872.19;;;4.30;100.00
56270;BME280;42176;43.240;27.880;2024-02-28T04:06:47;100875.88;;;4.45;100.00
56270;BME280;42176;43.240;27.880;2024-02-28T04:08:47;100876.06;;;4.57;100.00
56270;BME280;42176;43.240;27.880;2024-02-28T04:10:48;100871.84;;;4.67;100.00
56270;BME280;42176;43.240;27.880;2024-02-28T04:12:50;100861.22;;;4.57;100.00
56270;BME280;42176;43.240;27.880;2024-02-28T04:14:51;100849.13;;;4.10;100.00
56270;BME280;42176;43.240;27.880;2024-02-28T04:16:51;100842.72;;;3.42;100.00
56270;BME280;42176;43.240;27.880;2024-02-28T04:18:52;100833.69;;;3.28;100.00
56270;BME280;42176;43.240;27.880;2024-02-28T04:20:52;100839.34;;;3.49;100.00
56270;BME280;42176;43.240;27.880;2024-02-28T04:22:53;100841.50;;;3.72;100.00
56270;BME280;42176;43.240;27.880;2024-02-28T04:24:53;100848.81;;;3.92;100.00
56270;BME280;42176;43.240;27.880;2024-02-28T04:26:54;100855.28;;;4.13;100.00
56270;BME280;42176;43.240;27.880;2024-02-28T04:28:55;100859.09;;;4.33;100.00
56270;BME280;42176;43.240;27.880;2024-02-28T04:30:56;100861.97;;;4.49;100.00
56270;BME280;42176;43.240;27.880;2024-02-28T04:32:57;100857.84;;;4.68;100.00
56270;BME280;42176;43.240;27.880;2024-02-28T04:34:57;100855.94;;;5.25;100.00
56270;BME280;42176;43.240;27.880;2024-02-28T04:36:58;100849.16;;;4.72;100.00
56270;BME280;42176;43.240;27.880;2024-02-28T04:38:58;100847.13;;;4.52;100.00
56270;BME280;42176;43.240;27.880;2024-02-28T04:41:01;100844.28;;;4.38;100.00
56270;BME280;42176;43.240;27.880;2024-02-28T04:43:01;100832.00;;;4.34;100.00
56270;BME280;42176;43.240;27.880;2024-02-28T04:45:02;100861.84;;;4.42;100.00
56270;BME280;42176;43.240;27.880;2024-02-28T04:47:03;100859.72;;;4.17;100.00
56270;BME280;42176;43.240;27.880;2024-02-28T04:49:04;100871.50;;;4.44;100.00
56270;BME280;42176;43.240;27.880;2024-02-28T04:51:05;100874.34;;;4.59;100.00
56270;BME280;42176;43.240;27.880;2024-02-28T04:53:05;100888.56;;;4.73;100.00
56270;BME280;42176;43.240;27.880;2024-02-28T04:55:06;100895.88;;;4.96;100.00
56270;BME280;42176;43.240;27.880;2024-02-28T04:57:07;100884.53;;;5.00;100.00
56270;BME280;42176;43.240;27.880;2024-02-28T04:59:10;100883.81;;;4.48;100.00
56270;BME280;42176;43.240;27.880;2024-02-28T05:01:11;100883.66;;;4.38;100.00
56270;BME280;42176;43.240;27.880;2024-02-28T05:03:13;100877.84;;;4.58;100.00
56270;BME280;42176;43.240;27.880;2024-02-28T05:05:13;100897.41;;;4.79;100.00
56270;BME280;42176;43.240;27.880;2024-02-28T05:07:14;100891.94;;;5.32;100.00
56270;BME280;42176;43.240;27.880;2024-02-28T05:09:14;100850.88;;;4.70;100.00
56270;BME280;42176;43.240;27.880;2024-02-28T05:11:15;100880.22;;;4.42;100.00
56270;BME280;42176;43.240;27.880;2024-02-28T05:13:15;100888.06;;;4.39;100.00
56270;BME280;42176;43.240;27.880;2024-02-28T05:15:16;100883.19;;;4.64;100.00
56270;BME280;42176;43.240;27.880;2024-02-28T05:17:17;100883.59;;;4.95;100.00
56270;BME280;42176;43.240;27.880;2024-02-28T05:19:18;100888.56;;;5.46;100.00
56270;BME280;42176;43.240;27.880;2024-02-28T05:21:19;100888.97;;;5.05;100.00
56270;BME280;42176;43.240;27.880;2024-02-28T05:23:20;100877.19;;;4.76;100.00
56270;BME280;42176;43.240;27.880;2024-02-28T05:25:22;100890.44;;;4.81;100.00
56270;BME280;42176;43.240;27.880;2024-02-28T05:27:23;100881.09;;;5.06;100.00
56270;BME280;42176;43.240;27.880;2024-02-28T05:29:24;100899.91;;;5.39;100.00
56270;BME280;42176;43.240;27.880;2024-02-28T05:31:27;100901.97;;;5.68;100.00
56270;BME280;42176;43.240;27.880;2024-02-28T05:33:28;100905.75;;;5.98;100.00
56270;BME280;42176;43.240;27.880;2024-02-28T05:35:29;100898.13;;;6.22;100.00
56270;BME280;42176;43.240;27.880;2024-02-28T05:37:29;100901.06;;;6.66;100.00
56270;BME280;42176;43.240;27.880;2024-02-28T05:39:30;100896.97;;;7.22;100.00
56270;BME280;42176;43.240;27.880;2024-02-28T05:41:31;100888.31;;;7.81;100.00
56270;BME280;42176;43.240;27.880;2024-02-28T05:43:31;100867.94;;;7.21;100.00
56270;BME280;42176;43.240;27.880;2024-02-28T05:45:32;100865.88;;;6.58;100.00
56270;BME280;42176;43.240;27.880;2024-02-28T05:47:32;100871.84;;;6.33;100.00
56270;BME280;42176;43.240;27.880;2024-02-28T05:49:33;100880.72;;;6.42;100.00
56270;BME280;42176;43.240;27.880;2024-02-28T05:51:34;100875.00;;;7.28;100.00
56270;BME280;42176;43.240;27.880;2024-02-28T05:53:36;100878.66;;;8.01;100.00
56270;BME280;42176;43.240;27.880;2024-02-28T05:55:37;100873.34;;;8.63;100.00
56270;BME280;42176;43.240;27.880;2024-02-28T05:57:38;100882.16;;;8.13;100.00
56270;BME280;42176;43.240;27.880;2024-02-28T05:59:38;100870.69;;;7.64;100.00
56270;BME280;42176;43.240;27.880;2024-02-28T06:01:39;100871.59;;;8.62;100.00
56270;BME280;42176;43.240;27.880;2024-02-28T06:03:40;100863.38;;;9.40;100.00
56270;BME280;42176;43.240;27.880;2024-02-28T06:05:41;100869.38;;;9.67;100.00
56270;BME280;42176;43.240;27.880;2024-02-28T06:07:42;100870.44;;;9.35;100.00
56270;BME280;42176;43.240;27.880;2024-02-28T06:09:42;100879.56;;;8.48;100.00
56270;BME280;42176;43.240;27.880;2024-02-28T06:11:43;100872.50;;;7.91;100.00
56270;BME280;42176;43.240;27.880;2024-02-28T06:13:43;100878.56;;;8.97;100.00
56270;BME280;42176;43.240;27.880;2024-02-28T06:15:44;100880.03;;;9.57;100.00
56270;BME280;42176;43.240;27.880;2024-02-28T06:17:44;100874.38;;;10.09;100.00
56270;BME280;42176;43.240;27.880;2024-02-28T06:19:45;100873.44;;;10.14;100.00
56270;BME280;42176;43.240;27.880;2024-02-28T06:21:45;100883.25;;;10.98;100.00
56270;BME280;42176;43.240;27.880;2024-02-28T06:23:46;100874.84;;;11.35;100.00
56270;BME280;42176;43.240;27.880;2024-02-28T06:25:46;100873.78;;;11.47;100.00
56270;BME280;42176;43.240;27.880;2024-02-28T06:27:47;100885.69;;;12.39;100.00
56270;BME280;42176;43.240;27.880;2024-02-28T06:29:48;100882.38;;;12.74;100.00
56270;BME280;42176;43.240;27.880;2024-02-28T06:31:52;100884.84;;;13.29;100.00
56270;BME280;42176;43.240;27.880;2024-02-28T06:33:52;100878.88;;;13.16;100.00
56270;BME280;42176;43.240;27.880;2024-02-28T06:35:53;100864.78;;;13.55;99.96
56270;BME280;42176;43.240;27.880;2024-02-28T06:37:53;100881.38;;;13.66;96.73
56270;BME280;42176;43.240;27.880;2024-02-28T06:39:54;100875.94;;;13.71;96.53
56270;BME280;42176;43.240;27.880;2024-02-28T06:41:55;100879.19;;;13.85;96.52
56270;BME280;42176;43.240;27.880;2024-02-28T06:43:55;100882.88;;;13.78;94.54
56270;BME280;42176;43.240;27.880;2024-02-28T06:45:56;100883.88;;;13.74;95.29
56270;BME280;42176;43.240;27.880;2024-02-28T06:47:57;100876.50;;;13.46;95.50
56270;BME280;42176;43.240;27.880;2024-02-28T06:49:58;100891.00;;;12.86;99.34
56270;BME280;42176;43.240;27.880;2024-02-28T06:51:59;100896.00;;;12.57;100.00
56270;BME280;42176;43.240;27.880;2024-02-28T06:54:01;100896.56;;;12.23;100.00
56270;BME280;42176;43.240;27.880;2024-02-28T06:56:02;100907.94;;;12.83;100.00
56270;BME280;42176;43.240;27.880;2024-02-28T06:58:03;100906.88;;;13.36;98.58
56270;BME280;42176;43.240;27.880;2024-02-28T07:00:05;100910.28;;;12.99;97.91
56270;BME280;42176;43.240;27.880;2024-02-28T07:02:08;100910.56;;;12.34;100.00
56270;BME280;42176;43.240;27.880;2024-02-28T07:04:09;100912.91;;;11.33;100.00
56270;BME280;42176;43.240;27.880;2024-02-28T07:06:10;100915.63;;;11.92;100.00
56270;BME280;42176;43.240;27.880;2024-02-28T07:08:11;100915.78;;;11.83;100.00
56270;BME280;42176;43.240;27.880;2024-02-28T07:10:12;100910.28;;;12.50;100.00
56270;BME280;42176;43.240;27.880;2024-02-28T07:12:12;100917.50;;;12.45;100.00
56270;BME280;42176;43.240;27.880;2024-02-28T07:14:13;100914.06;;;12.37;100.00
56270;BME280;42176;43.240;27.880;2024-02-28T07:16:13;100918.00;;;12.66;100.00
56270;BME280;42176;43.240;27.880;2024-02-28T07:18:14;100911.94;;;12.57;100.00
56270;BME280;42176;43.240;27.880;2024-02-28T07:20:15;100911.41;;;12.87;100.00
56270;BME280;42176;43.240;27.880;2024-02-28T07:22:17;100916.00;;;12.28;100.00
56270;BME280;42176;43.240;27.880;2024-02-28T07:24:18;100912.31;;;11.78;100.00
56270;BME280;42176;43.240;27.880;2024-02-28T07:26:18;100915.34;;;12.14;100.00
56270;BME280;42176;43.240;27.880;2024-02-28T07:28:19;100919.31;;;11.83;100.00
56270;BME280;42176;43.240;27.880;2024-02-28T07:30:19;100906.81;;;11.23;100.00
56270;BME280;42176;43.240;27.880;2024-02-28T07:32:20;100914.00;;;11.18;100.00
56270;BME280;42176;43.240;27.880;2024-02-28T07:34:21;100915.13;;;10.96;100.00
56270;BME280;42176;43.240;27.880;2024-02-28T07:36:21;100906.31;;;10.91;100.00
56270;BME280;42176;43.240;27.880;2024-02-28T07:38:22;100909.81;;;10.95;100.00
56270;BME280;42176;43.240;27.880;2024-02-28T07:40:27;100909.34;;;10.56;100.00
56270;BME280;42176;43.240;27.880;2024-02-28T07:42:28;100899.13;;;11.04;100.00
56270;BME280;42176;43.240;27.880;2024-02-28T07:44:29;100907.47;;;12.08;100.00
56270;BME280;42176;43.240;27.880;2024-02-28T07:46:30;100904.75;;;12.64;100.00
56270;BME280;42176;43.240;27.880;2024-02-28T07:48:31;100909.13;;;12.67;100.00
56270;BME280;42176;43.240;27.880;2024-02-28T07:50:32;100910.34;;;12.47;100.00
56270;BME280;42176;43.240;27.880;2024-02-28T07:52:32;100906.53;;;12.10;100.00
56270;BME280;42176;43.240;27.880;2024-02-28T07:54:37;100920.06;;;11.93;100.00
56270;BME280;42176;43.240;27.880;2024-02-28T07:56:38;100913.44;;;11.61;100.00
56270;BME280;42176;43.240;27.880;2024-02-28T07:58:38;100918.13;;;12.05;100.00
56270;BME280;42176;43.240;27.880;2024-02-28T08:00:39;100902.72;;;11.67;100.00
56270;BME280;42176;43.240;27.880;2024-02-28T08:02:41;100903.84;;;11.51;100.00
56270;BME280;42176;43.240;27.880;2024-02-28T08:04:41;100919.38;;;11.08;100.00
56270;BME280;42176;43.240;27.880;2024-02-28T08:06:42;100913.59;;;10.71;100.00
56270;BME280;42176;43.240;27.880;2024-02-28T08:08:46;100916.59;;;10.29;100.00
56270;BME280;42176;43.240;27.880;2024-02-28T08:10:47;100920.06;;;10.37;100.00
56270;BME280;42176;43.240;27.880;2024-02-28T08:12:49;100910.97;;;10.68;100.00
56270;BME280;42176;43.240;27.880;2024-02-28T08:14:49;100908.78;;;11.08;100.00
56270;BME280;42176;43.240;27.880;2024-02-28T08:16:50;100909.09;;;10.80;100.00
56270;BME280;42176;43.240;27.880;2024-02-28T08:18:51;100916.69;;;11.13;100.00
56270;BME280;42176;43.240;27.880;2024-02-28T08:20:51;100930.56;;;10.51;100.00
56270;BME280;42176;43.240;27.880;2024-02-28T08:22:53;100922.69;;;10.45;100.00
56270;BME280;42176;43.240;27.880;2024-02-28T08:24:56;100918.66;;;9.93;100.00
56270;BME280;42176;43.240;27.880;2024-02-28T08:26:57;100924.78;;;9.98;100.00
56270;BME280;42176;43.240;27.880;2024-02-28T08:28:57;100920.31;;;10.06;100.00
56270;BME280;42176;43.240;27.880;2024-02-28T08:30:58;100907.19;;;9.87;100.00
56270;BME280;42176;43.240;27.880;2024-02-28T08:32:59;100916.66;;;10.23;100.00
56270;BME280;42176;43.240;27.880;2024-02-28T08:35:00;100922.38;;;10.77;100.00
56270;BME280;42176;43.240;27.880;2024-02-28T08:37:01;100916.97;;;10.90;100.00
56270;BME280;42176;43.240;27.880;2024-02-28T08:39:01;100919.47;;;11.01;100.00
56270;BME280;42176;43.240;27.880;2024-02-28T08:41:05;100927.19;;;11.88;100.00
56270;BME280;42176;43.240;27.880;2024-02-28T08:43:05;100920.09;;;11.90;100.00
56270;BME280;42176;43.240;27.880;2024-02-28T08:45:06;100931.72;;;11.81;100.00
56270;BME280;42176;43.240;27.880;2024-02-28T08:47:07;100916.91;;;11.65;100.00
56270;BME280;42176;43.240;27.880;2024-02-28T08:49:13;100929.78;;;11.93;100.00
56270;BME280;42176;43.240;27.880;2024-02-28T08:51:13;100929.81;;;11.24;100.00
56270;BME280;42176;43.240;27.880;2024-02-28T08:53:14;100914.75;;;11.93;100.00
56270;BME280;42176;43.240;27.880;2024-02-28T08:55:15;100921.91;;;12.44;100.00
56270;BME280;42176;43.240;27.880;2024-02-28T08:57:19;100933.31;;;12.51;100.00
56270;BME280;42176;43.240;27.880;2024-02-28T08:59:20;100926.16;;;12.56;100.00
56270;BME280;42176;43.240;27.880;2024-02-28T09:01:22;100926.38;;;12.44;100.00
56270;BME280;42176;43.240;27.880;2024-02-28T09:03:22;100933.44;;;12.45;100.00
56270;BME280;42176;43.240;27.880;2024-02-28T09:05:23;100935.50;;;12.27;100.00
56270;BME280;42176;43.240;27.880;2024-02-28T09:07:24;100939.91;;;11.67;100.00
56270;BME280;42176;43.240;27.880;2024-02-28T09:09:24;100936.66;;;12.09;100.00
56270;BME280;42176;43.240;27.880;2024-02-28T09:11:25;100935.25;;;12.41;100.00
56270;BME280;42176;43.240;27.880;2024-02-28T09:13:25;100940.28;;;12.05;100.00
56270;BME280;42176;43.240;27.880;2024-02-28T09:15:27;100934.63;;;11.64;100.00
56270;BME280;42176;43.240;27.880;2024-02-28T09:17:27;100947.44;;;11.31;100.00
56270;BME280;42176;43.240;27.880;2024-02-28T09:19:28;100940.91;;;10.80;100.00
56270;BME280;42176;43.240;27.880;2024-02-28T09:21:28;100939.53;;;10.33;100.00
56270;BME280;42176;43.240;27.880;2024-02-28T09:23:29;100940.31;;;10.50;100.00
56270;BME280;42176;43.240;27.880;2024-02-28T09:25:30;100938.06;;;9.95;100.00
56270;BME280;42176;43.240;27.880;2024-02-28T09:27:32;100933.53;;;10.08;100.00
56270;BME280;42176;43.240;27.880;2024-02-28T09:29:33;100929.28;;;9.83;100.00
56270;BME280;42176;43.240;27.880;2024-02-28T09:31:34;100944.34;;;9.78;100.00
56270;BME280;42176;43.240;27.880;2024-02-28T09:33:34;100935.53;;;9.73;100.00
56270;BME280;42176;43.240;27.880;2024-02-28T09:35:35;100945.31;;;9.65;100.00
56270;BME280;42176;43.240;27.880;2024-02-28T09:37:38;100935.50;;;9.78;100.00
56270;BME280;42176;43.240;27.880;2024-02-28T09:39:40;100933.63;;;9.98;100.00
56270;BME280;42176;43.240;27.880;2024-02-28T09:41:41;100922.09;;;10.04;100.00
56270;BME280;42176;43.240;27.880;2024-02-28T09:43:42;100937.78;;;10.29;100.00
56270;BME280;42176;43.240;27.880;2024-02-28T09:45:42;100926.63;;;9.89;100.00
56270;BME280;42176;43.240;27.880;2024-02-28T09:47:43;100933.69;;;9.84;100.00
56270;BME280;42176;43.240;27.880;2024-02-28T09:49:45;100940.03;;;9.58;100.00
56270;BME280;42176;43.240;27.880;2024-02-28T09:51:49;100931.50;;;8.70;100.00
56270;BME280;42176;43.240;27.880;2024-02-28T09:53:51;100942.06;;;8.63;100.00
56270;BME280;42176;43.240;27.880;2024-02-28T09:55:52;100945.50;;;9.18;100.00
56270;BME280;42176;43.240;27.880;2024-02-28T09:57:53;100932.13;;;9.48;100.00
56270;BME280;42176;43.240;27.880;2024-02-28T09:59:55;100939.16;;;9.53;100.00
56270;BME280;42176;43.240;27.880;2024-02-28T10:01:57;100937.44;;;9.49;100.00
56270;BME280;42176;43.240;27.880;2024-02-28T10:03:59;100934.09;;;8.88;100.00
56270;BME280;42176;43.240;27.880;2024-02-28T10:06:01;100927.91;;;9.02;100.00
56270;BME280;42176;43.240;27.880;2024-02-28T10:08:02;100936.63;;;9.25;100.00
56270;BME280;42176;43.240;27.880;2024-02-28T10:10:03;100932.16;;;9.40;100.00
56270;BME280;42176;43.240;27.880;2024-02-28T10:12:04;100929.44;;;9.55;100.00
56270;BME280;42176;43.240;27.880;2024-02-28T10:14:05;100926.84;;;9.49;100.00
56270;BME280;42176;43.240;27.880;2024-02-28T10:16:06;100927.06;;;8.75;100.00
56270;BME280;42176;43.240;27.880;2024-02-28T10:18:07;100910.34;;;8.60;100.00
56270;BME280;42176;43.240;27.880;2024-02-28T10:20:08;100932.38;;;8.79;100.00
56270;BME280;42176;43.240;27.880;2024-02-28T10:22:09;100934.09;;;8.97;100.00